Time;durP1;ratioP1;P1;durP2;ratioP2;P2;SDS_P1;SDS_P2;PMS_P1;PMS_P2;Temp;Humidity;BMP_temperature;BMP_pressure;BME280_temperature;BME280_humidity;BME280_pressure;Samples;Min_cycle;Max_cycle;Signal;HPM_P1;HPM_P2
2021/12/14 00:01:31;;;;;;;16.80;13.43;;;9.10;99.90;;;;;;5144500;27;20122;-64
2021/12/14 00:04:01;;;;;;;15.48;12.25;;;9.10;99.90;;;;;;5127550;27;20047;-64
2021/12/14 00:06:27;;;;;;;18.88;12.70;;;9.10;99.90;;;;;;5110513;28;20058;-64
2021/12/14 00:08:58;;;;;;;19.20;12.38;;;9.10;99.90;;;;;;5126509;28;20052;-63
2021/12/14 00:14:09;;;;;;;18.75;13.02;;;9.00;99.90;;;;;;5124966;27;20380;-64
2021/12/14 00:16:35;;;;;;;18.17;13.93;;;9.00;99.90;;;;;;5117069;28;20043;-64
2021/12/14 00:19:01;;;;;;;20.02;12.93;;;9.00;99.90;;;;;;5129571;28;20043;-64
2021/12/14 00:21:30;;;;;;;19.67;13.77;;;9.00;99.90;;;;;;5104080;28;20057;-64
2021/12/14 00:24:14;;;;;;;19.63;14.35;;;9.00;99.90;;;;;;5140228;27;20066;-64
2021/12/14 00:26:45;;;;;;;20.77;14.15;;;9.00;99.90;;;;;;5120201;27;20784;-64
2021/12/14 00:29:39;;;;;;;14.55;11.82;;;9.00;99.90;;;;;;5130073;27;20039;-64
2021/12/14 00:32:17;;;;;;;21.10;13.60;;;9.00;99.90;;;;;;5102844;28;20051;-64
2021/12/14 00:34:44;;;;;;;18.85;13.20;;;9.00;99.90;;;;;;5127983;28;20555;-64
2021/12/14 00:37:13;;;;;;;22.73;13.80;;;9.00;99.90;;;;;;5128190;27;20074;-63
2021/12/14 00:39:40;;;;;;;20.90;13.95;;;9.00;99.90;;;;;;5128489;27;20251;-64
2021/12/14 00:42:06;;;;;;;17.77;12.93;;;9.00;99.90;;;;;;5128689;28;20082;-64
2021/12/14 00:44:33;;;;;;;20.10;13.90;;;9.00;99.90;;;;;;5130226;27;20043;-64
2021/12/14 00:46:59;;;;;;;18.30;13.55;;;9.00;99.90;;;;;;5127554;27;20047;-63
2021/12/14 00:49:25;;;;;;;19.00;13.80;;;8.90;99.90;;;;;;5132800;27;20035;-63
2021/12/14 00:51:51;;;;;;;19.65;13.55;;;8.90;99.90;;;;;;5126194;27;20062;-63
2021/12/14 00:54:17;;;;;;;19.00;13.90;;;8.90;99.90;;;;;;5134373;27;20042;-64
2021/12/14 00:56:45;;;;;;;23.27;15.40;;;8.90;99.90;;;;;;5128851;27;20288;-63
2021/12/14 00:59:13;;;;;;;20.13;16.05;;;8.90;99.90;;;;;;5142072;27;20042;-64
2021/12/14 01:01:54;;;;;;;21.55;15.77;;;8.90;99.90;;;;;;5127304;27;20086;-64
2021/12/14 01:04:30;;;;;;;22.25;15.25;;;8.90;99.90;;;;;;5131747;27;20698;-63
2021/12/14 01:06:56;;;;;;;21.80;14.95;;;8.90;99.90;;;;;;5114117;27;20043;-64
2021/12/14 01:09:28;;;;;;;19.80;15.25;;;8.90;99.90;;;;;;5132356;27;20046;-64
2021/12/14 01:11:58;;;;;;;21.52;14.77;;;8.90;99.90;;;;;;5140006;27;20038;-64
2021/12/14 01:14:39;;;;;;;22.80;16.08;;;8.90;99.90;;;;;;5119827;27;20494;-64
2021/12/14 01:17:24;;;;;;;29.27;17.92;;;8.90;99.90;;;;;;5129805;27;20112;-64
2021/12/14 01:19:55;;;;;;;23.48;15.93;;;8.90;99.90;;;;;;5129216;27;20047;-64
2021/12/14 01:25:31;;;;;;;26.08;15.77;;;8.90;99.90;;;;;;5144759;27;20046;-64
2021/12/14 01:28:09;;;;;;;26.10;18.40;;;8.80;99.90;;;;;;5133126;27;20047;-64
2021/12/14 01:31:24;;;;;;;21.15;17.33;;;8.90;99.90;;;;;;5132470;27;20043;-64
2021/12/14 01:33:41;;;;;;;26.87;16.93;;;8.90;99.90;;;;;;5126001;27;20078;-64
2021/12/14 01:36:21;;;;;;;22.55;16.95;;;8.90;99.90;;;;;;5127238;27;20402;-64
2021/12/14 01:39:08;;;;;;;24.70;18.05;;;8.80;99.90;;;;;;5129115;27;20046;-64
2021/12/14 01:41:33;;;;;;;25.25;16.40;;;8.80;99.90;;;;;;5132058;27;20062;-64
2021/12/14 01:43:59;;;;;;;24.90;16.85;;;8.90;99.90;;;;;;5129980;27;20486;-64
2021/12/14 01:46:43;;;;;;;24.88;17.00;;;8.90;99.90;;;;;;5130589;27;20066;-63
2021/12/14 01:49:11;;;;;;;28.80;17.85;;;8.90;99.90;;;;;;5133931;27;20042;-64
2021/12/14 01:51:40;;;;;;;21.73;17.33;;;8.90;99.90;;;;;;5138558;27;20038;-63
2021/12/14 01:54:10;;;;;;;24.23;17.48;;;8.90;99.90;;;;;;5123827;27;20047;-63
2021/12/14 01:56:36;;;;;;;27.65;18.30;;;8.90;99.90;;;;;;5112967;27;20634;-64
2021/12/14 01:59:27;;;;;;;30.73;17.38;;;8.90;99.90;;;;;;5137789;27;20435;-64
2021/12/14 02:01:57;;;;;;;25.33;17.73;;;8.90;99.90;;;;;;5138285;27;20035;-64
2021/12/14 02:04:26;;;;;;;22.02;16.23;;;8.90;99.90;;;;;;5140596;27;20042;-64
2021/12/14 02:07:02;;;;;;;27.38;18.35;;;8.80;99.90;;;;;;5128831;27;20024;-64
2021/12/14 02:09:30;;;;;;;23.48;17.50;;;8.90;99.90;;;;;;5125226;27;20051;-64
2021/12/14 02:11:58;;;;;;;26.98;17.88;;;8.90;99.90;;;;;;5143857;27;20084;-64
2021/12/14 02:14:25;;;;;;;21.13;16.33;;;8.90;99.90;;;;;;5130432;27;20078;-64
2021/12/14 02:16:55;;;;;;;23.95;17.80;;;8.90;99.90;;;;;;5111014;27;20043;-64
2021/12/14 02:19:21;;;;;;;23.88;17.02;;;8.90;99.90;;;;;;5130926;27;20054;-64
2021/12/14 02:21:49;;;;;;;28.55;18.73;;;8.90;99.90;;;;;;5134810;27;20031;-64
2021/12/14 02:24:19;;;;;;;24.45;17.20;;;8.90;99.90;;;;;;5143762;27;20095;-64
2021/12/14 02:26:46;;;;;;;24.55;17.92;;;8.90;99.90;;;;;;5112716;27;20398;-64
2021/12/14 02:29:20;;;;;;;25.13;17.38;;;8.90;99.90;;;;;;5130842;27;20414;-64
2021/12/14 02:31:46;;;;;;;25.95;19.35;;;8.90;99.90;;;;;;5146194;27;20039;-64
2021/12/14 02:34:11;;;;;;;23.08;16.98;;;8.90;99.90;;;;;;5127784;27;20046;-64
2021/12/14 02:36:47;;;;;;;24.80;17.35;;;8.90;99.90;;;;;;5136244;27;20035;-64
2021/12/14 02:39:45;;;;;;;35.35;18.02;;;8.90;99.90;;;;;;5131406;27;20100;-64
2021/12/14 02:42:18;;;;;;;29.70;17.83;;;8.90;99.90;;;;;;5129781;27;20100;-64
2021/12/14 02:44:49;;;;;;;25.38;18.65;;;8.80;99.90;;;;;;5129949;27;20046;-64
2021/12/14 02:47:17;;;;;;;26.42;18.52;;;8.80;99.90;;;;;;5111542;27;20047;-64
2021/12/14 02:49:44;;;;;;;25.85;19.50;;;8.80;99.90;;;;;;5137674;27;20049;-64
2021/12/14 02:52:13;;;;;;;25.73;18.27;;;8.80;99.90;;;;;;5116068;27;20480;-63
2021/12/14 02:54:48;;;;;;;28.60;19.75;;;8.80;99.90;;;;;;5122316;27;20046;-64
2021/12/14 02:57:21;;;;;;;23.95;17.35;;;8.80;99.90;;;;;;5130418;27;20047;-64
2021/12/14 02:59:48;;;;;;;24.80;18.58;;;8.80;99.90;;;;;;5105985;27;20057;-64
2021/12/14 03:02:19;;;;;;;28.52;21.23;;;8.80;99.90;;;;;;5111689;27;20557;-64
2021/12/14 03:04:49;;;;;;;28.70;20.02;;;8.90;99.90;;;;;;5131107;27;20047;-64
2021/12/14 03:07:16;;;;;;;28.27;18.70;;;8.80;99.90;;;;;;5110509;28;20070;-64
2021/12/14 03:09:59;;;;;;;28.15;20.30;;;8.90;99.90;;;;;;5127847;27;20039;-64
2021/12/14 03:12:36;;;;;;;31.23;20.20;;;8.90;99.90;;;;;;5130237;27;20673;-63
2021/12/14 03:15:32;;;;;;;27.30;18.90;;;8.90;99.90;;;;;;5132746;27;20039;-64
2021/12/14 03:18:03;;;;;;;27.05;19.58;;;8.90;99.90;;;;;;5124670;27;20577;-64
2021/12/14 03:20:39;;;;;;;31.45;20.90;;;8.90;99.90;;;;;;5136349;27;20043;-64
2021/12/14 03:23:12;;;;;;;30.05;20.90;;;8.90;99.90;;;;;;5133382;27;20061;-64
2021/12/14 03:25:42;;;;;;;30.13;21.27;;;8.80;99.90;;;;;;5131595;27;20067;-64
2021/12/14 03:28:10;;;;;;;27.88;20.00;;;8.90;99.90;;;;;;5108321;27;20069;-64
2021/12/14 03:30:41;;;;;;;32.03;21.50;;;8.80;99.90;;;;;;5137750;27;20245;-64
2021/12/14 03:33:18;;;;;;;35.25;22.67;;;8.80;99.90;;;;;;5129923;27;20046;-63
2021/12/14 03:35:49;;;;;;;28.50;21.30;;;8.80;99.90;;;;;;5131486;27;20140;-64
2021/12/14 03:38:23;;;;;;;31.52;23.05;;;8.80;99.90;;;;;;5133259;27;20051;-64
2021/12/14 03:40:59;;;;;;;33.05;21.85;;;8.80;99.90;;;;;;5141329;27;20038;-64
2021/12/14 03:43:25;;;;;;;39.47;25.88;;;8.70;99.90;;;;;;5113874;27;20046;-64
2021/12/14 03:45:52;;;;;;;36.38;24.15;;;8.70;99.90;;;;;;5128508;27;20065;-64
2021/12/14 03:48:21;;;;;;;37.50;24.83;;;8.70;99.90;;;;;;5111624;28;20043;-64
2021/12/14 03:50:47;;;;;;;33.92;23.90;;;8.70;99.90;;;;;;5132018;27;20050;-64
2021/12/14 03:53:13;;;;;;;35.42;24.30;;;8.60;99.90;;;;;;5130718;27;20810;-63
2021/12/14 03:55:43;;;;;;;37.05;25.48;;;8.60;99.90;;;;;;5135262;27;20042;-64
2021/12/14 03:58:13;;;;;;;41.22;26.60;;;8.60;99.90;;;;;;5129873;28;20053;-63
2021/12/14 04:00:45;;;;;;;36.35;25.60;;;8.70;99.90;;;;;;5129236;28;20667;-64
2021/12/14 04:03:14;;;;;;;40.90;25.15;;;8.60;99.90;;;;;;5111602;27;20054;-64
2021/12/14 04:05:41;;;;;;;39.95;24.92;;;8.60;99.90;;;;;;5109507;28;20047;-64
2021/12/14 04:08:08;;;;;;;35.92;25.90;;;8.60;99.90;;;;;;5113266;27;20788;-63
2021/12/14 04:10:37;;;;;;;41.10;25.95;;;8.60;99.90;;;;;;5143274;27;20035;-64
2021/12/14 04:13:04;;;;;;;37.38;25.90;;;8.60;99.90;;;;;;5124501;27;20126;-64
2021/12/14 04:15:29;;;;;;;33.83;24.90;;;8.60;99.90;;;;;;5108472;27;20484;-63
2021/12/14 04:17:56;;;;;;;39.72;27.60;;;8.60;99.90;;;;;;5117540;27;20031;-64
2021/12/14 04:20:30;;;;;;;42.10;27.42;;;8.70;99.90;;;;;;5135215;27;20688;-64
2021/12/14 04:22:56;;;;;;;41.55;26.98;;;8.60;99.90;;;;;;5133656;27;20050;-64
2021/12/14 04:25:26;;;;;;;40.15;26.40;;;8.60;99.90;;;;;;5134177;27;20035;-63
2021/12/14 04:27:53;;;;;;;39.72;27.50;;;8.60;99.90;;;;;;5150367;27;20035;-64
2021/12/14 04:30:23;;;;;;;38.03;25.85;;;8.60;99.90;;;;;;5132575;27;20058;-64
2021/12/14 04:32:52;;;;;;;39.03;26.83;;;8.60;99.90;;;;;;5133186;27;20073;-64
2021/12/14 04:35:19;;;;;;;44.10;26.40;;;8.60;99.90;;;;;;5125889;27;20092;-64
2021/12/14 04:37:55;;;;;;;40.47;25.80;;;8.60;99.90;;;;;;5133119;27;20065;-64
2021/12/14 04:51:53;;;;;;;35.22;25.95;;;8.60;99.90;;;;;;5133234;27;20625;-64
2021/12/14 04:54:20;;;;;;;;;;;8.60;99.90;;;;;;5141867;27;20043;-64
2021/12/14 04:56:46;;;;;;;46.55;27.27;;;8.60;99.90;;;;;;5114578;27;19964;-64
2021/12/14 04:59:24;;;;;;;43.00;27.15;;;8.60;99.90;;;;;;5132987;27;20042;-64
2021/12/14 05:01:54;;;;;;;36.08;25.15;;;8.60;99.90;;;;;;5131266;27;20392;-64
2021/12/14 05:04:23;;;;;;;40.97;26.92;;;8.60;99.90;;;;;;5119238;27;20500;-64
2021/12/14 05:06:56;;;;;;;43.47;27.77;;;8.60;99.90;;;;;;5153178;27;20050;-64
2021/12/14 05:09:27;;;;;;;44.38;27.17;;;8.60;99.90;;;;;;5131154;27;20038;-64
2021/12/14 05:11:55;;;;;;;39.15;26.15;;;8.60;99.90;;;;;;5143797;27;20035;-63
2021/12/14 05:14:23;;;;;;;40.10;27.02;;;8.60;99.90;;;;;;5118053;27;20126;-64
2021/12/14 05:16:59;;;;;;;42.92;28.83;;;8.60;99.90;;;;;;5113890;27;20039;-64
2021/12/14 05:19:26;;;;;;;42.15;28.30;;;8.60;99.90;;;;;;5132749;27;20189;-64
2021/12/14 05:21:53;;;;;;;45.58;30.58;;;8.60;99.90;;;;;;5131827;27;20461;-64
2021/12/14 05:24:25;;;;;;;48.35;29.85;;;8.60;99.90;;;;;;5126077;27;20070;-64
2021/12/14 05:27:00;;;;;;;46.63;30.70;;;8.60;99.90;;;;;;5139181;27;20057;-64
2021/12/14 05:29:30;;;;;;;47.45;30.52;;;8.60;99.90;;;;;;5135119;27;20494;-64
2021/12/14 05:31:59;;;;;;;46.47;29.85;;;8.50;99.90;;;;;;5136318;27;20043;-64
2021/12/14 05:34:27;;;;;;;49.45;31.63;;;8.50;99.90;;;;;;5131398;27;20047;-64
2021/12/14 05:36:53;;;;;;;53.08;32.10;;;8.50;99.90;;;;;;5139405;27;20126;-63
2021/12/14 05:44:46;;;;;;;47.03;31.92;;;8.50;99.90;;;;;;5117056;27;20134;-64
2021/12/14 05:47:17;;;;;;;50.63;31.67;;;8.50;99.90;;;;;;5140602;27;20043;-64
2021/12/14 05:49:45;;;;;;;48.90;32.17;;;8.50;99.90;;;;;;5128025;27;20043;-64
2021/12/14 05:52:20;;;;;;;53.58;33.30;;;8.50;99.90;;;;;;5127164;27;20044;-64
2021/12/14 05:54:46;;;;;;;53.08;32.33;;;8.50;99.90;;;;;;5133880;27;20660;-64
2021/12/14 05:57:16;;;;;;;54.67;33.00;;;8.50;99.90;;;;;;5127066;27;20051;-64
2021/12/14 05:59:42;;;;;;;55.92;33.53;;;8.50;99.90;;;;;;5114054;27;20122;-64
2021/12/14 06:02:09;;;;;;;48.08;30.73;;;8.50;99.90;;;;;;5112145;27;20035;-64
2021/12/14 06:04:41;;;;;;;52.78;34.78;;;8.50;99.90;;;;;;5131681;27;20112;-64
2021/12/14 06:07:08;;;;;;;50.65;32.17;;;8.50;99.90;;;;;;5129805;27;20376;-64
2021/12/14 06:09:37;;;;;;;54.53;32.60;;;8.50;99.90;;;;;;5131651;27;20054;-64
2021/12/14 06:12:17;;;;;;;55.13;35.13;;;8.50;99.90;;;;;;5130229;27;20057;-64
2021/12/14 06:14:51;;;;;;;49.42;31.40;;;8.50;99.90;;;;;;5113021;27;20085;-64
2021/12/14 06:17:22;;;;;;;59.08;34.70;;;8.50;99.90;;;;;;5131487;27;20035;-64
2021/12/14 06:19:54;;;;;;;52.10;31.80;;;8.50;99.90;;;;;;5129002;27;20087;-64
2021/12/14 06:22:21;;;;;;;57.70;34.03;;;8.50;99.90;;;;;;5114697;27;20118;-64
2021/12/14 06:24:57;;;;;;;54.78;32.95;;;8.50;99.90;;;;;;5129447;27;20039;-64
2021/12/14 06:27:26;;;;;;;49.60;32.70;;;8.50;99.90;;;;;;5130361;27;20051;-63
2021/12/14 06:29:56;;;;;;;50.10;32.05;;;8.60;99.90;;;;;;5134412;27;20054;-64
2021/12/14 06:32:25;;;;;;;59.13;34.42;;;8.60;99.90;;;;;;5130276;27;20050;-64
2021/12/14 06:34:54;;;;;;;57.80;34.28;;;8.60;99.90;;;;;;5114447;27;20047;-63
2021/12/14 06:38:09;;;;;;;69.22;36.20;;;8.60;99.90;;;;;;5126740;27;20051;-64
2021/12/14 06:40:09;;;;;;;68.22;36.25;;;8.60;99.90;;;;;;5113893;27;20051;-64
2021/12/14 06:42:40;;;;;;;62.78;36.88;;;8.60;99.90;;;;;;5134695;27;20043;-64
2021/12/14 06:45:19;;;;;;;58.97;33.55;;;8.60;99.90;;;;;;5126390;27;20066;-64
2021/12/14 06:47:47;;;;;;;60.75;34.17;;;8.60;99.90;;;;;;5138283;27;20067;-64
2021/12/14 06:50:21;;;;;;;57.53;35.38;;;8.60;99.90;;;;;;5115139;27;20066;-63
2021/12/14 06:53:04;;;;;;;62.35;36.50;;;8.60;99.90;;;;;;5129675;27;20039;-63
2021/12/14 06:55:32;;;;;;;59.30;35.42;;;8.60;99.90;;;;;;5122706;27;20099;-63
2021/12/14 06:58:12;;;;;;;64.63;36.05;;;8.60;99.90;;;;;;5113490;27;20046;-63
2021/12/14 07:01:05;;;;;;;70.55;38.47;;;8.60;99.90;;;;;;5128483;27;20035;-63
2021/12/14 07:03:52;;;;;;;68.38;37.75;;;8.60;99.90;;;;;;5131688;27;20085;-63
2021/12/14 07:06:31;;;;;;;62.67;36.22;;;8.60;99.90;;;;;;5146274;27;20370;-63
2021/12/14 07:09:07;;;;;;;66.05;38.78;;;8.60;99.90;;;;;;5145808;27;20543;-63
2021/12/14 07:11:33;;;;;;;75.90;38.42;;;8.60;99.90;;;;;;5130236;27;20046;-63
2021/12/14 07:14:02;;;;;;;72.05;39.42;;;8.60;99.90;;;;;;5120932;27;20083;-63
2021/12/14 07:16:32;;;;;;;62.83;36.20;;;8.60;99.90;;;;;;5126665;27;20039;-63
2021/12/14 07:19:02;;;;;;;60.72;35.10;;;8.60;99.90;;;;;;5143757;27;20790;-62
2021/12/14 07:21:36;;;;;;;59.83;36.70;;;8.60;99.90;;;;;;5110309;27;20054;-63
2021/12/14 07:24:20;;;;;;;;;;;8.60;99.90;;;;;;5136936;27;20054;-64
2021/12/14 07:26:46;;;;;;;71.88;38.97;;;8.60;99.90;;;;;;5105256;27;19924;-63
2021/12/14 07:29:11;;;;;;;64.95;35.42;;;8.60;99.90;;;;;;5110906;27;20405;-63
2021/12/14 07:31:41;;;;;;;68.32;37.38;;;8.60;99.90;;;;;;5115681;27;20100;-63
2021/12/14 07:34:07;;;;;;;68.90;37.28;;;8.60;99.90;;;;;;5138138;27;20040;-63
2021/12/14 07:36:36;;;;;;;61.70;34.85;;;8.60;99.90;;;;;;5124455;27;20046;-63
2021/12/14 07:39:04;;;;;;;62.70;36.22;;;8.60;99.90;;;;;;5128410;27;20047;-63
2021/12/14 07:41:50;;;;;;;64.50;35.40;;;8.70;99.90;;;;;;5130106;27;20055;-63
2021/12/14 07:44:19;;;;;;;68.65;35.72;;;8.70;99.90;;;;;;5111592;27;20059;-63
2021/12/14 07:46:51;;;;;;;65.03;36.85;;;8.70;99.90;;;;;;5136309;27;20129;-63
2021/12/14 07:49:25;;;;;;;65.20;36.50;;;8.70;99.90;;;;;;5138576;27;20053;-64
2021/12/14 07:51:55;;;;;;;62.95;35.97;;;8.70;99.90;;;;;;5100298;28;20124;-63
2021/12/14 07:54:25;;;;;;;67.35;35.13;;;8.70;99.90;;;;;;5137718;27;20050;-63
2021/12/14 07:56:58;;;;;;;66.15;36.42;;;8.70;99.90;;;;;;5129096;28;20047;-63
2021/12/14 07:59:30;;;;;;;60.28;36.33;;;8.70;99.90;;;;;;5127643;27;20490;-63
2021/12/14 08:02:32;;;;;;;59.78;34.22;;;8.70;99.90;;;;;;5128190;27;20100;-63
2021/12/14 08:05:00;;;;;;;57.28;34.90;;;8.70;99.90;;;;;;5127031;27;20498;-63
2021/12/14 08:07:36;;;;;;;56.78;34.03;;;8.70;99.90;;;;;;5127108;27;20550;-63
2021/12/14 08:10:09;;;;;;;73.07;37.70;;;8.80;99.90;;;;;;5125945;27;20486;-63
2021/12/14 08:12:41;;;;;;;64.50;34.80;;;8.80;99.90;;;;;;5129286;28;20039;-63
2021/12/14 08:15:16;;;;;;;68.45;35.63;;;8.80;99.90;;;;;;5127610;27;20058;-63
2021/12/14 08:17:45;;;;;;;72.85;37.03;;;8.80;99.90;;;;;;5142794;27;20036;-63
2021/12/14 08:20:21;;;;;;;53.60;33.75;;;8.70;99.90;;;;;;5135844;27;20051;-63
2021/12/14 08:22:47;;;;;;;73.05;37.22;;;8.80;99.90;;;;;;5130251;27;20606;-63
2021/12/14 08:25:21;;;;;;;65.50;36.00;;;8.80;99.90;;;;;;5128607;27;20121;-63
2021/12/14 08:27:47;;;;;;;63.47;35.45;;;8.70;99.90;;;;;;5128085;27;20049;-63
2021/12/14 08:30:15;;;;;;;73.15;34.72;;;8.80;99.90;;;;;;5129080;27;20062;-63
2021/12/14 08:32:42;;;;;;;75.50;38.97;;;8.80;99.90;;;;;;5150288;27;20568;-63
2021/12/14 08:35:11;;;;;;;68.50;34.83;;;8.80;99.90;;;;;;5110550;27;20068;-63
2021/12/14 08:37:44;;;;;;;68.63;37.90;;;8.80;99.90;;;;;;5138290;27;20559;-63
2021/12/14 08:40:16;;;;;;;64.30;35.77;;;8.80;99.90;;;;;;5122038;27;20058;-63
2021/12/14 08:43:02;;;;;;;74.32;38.78;;;8.80;99.90;;;;;;5129736;27;20139;-63
2021/12/14 08:45:38;;;;;;;80.18;40.05;;;8.90;99.90;;;;;;5128531;27;20035;-63
2021/12/14 08:48:09;;;;;;;71.38;36.53;;;8.90;99.90;;;;;;5128793;28;20454;-63
2021/12/14 08:50:44;;;;;;;88.72;40.17;;;8.90;99.90;;;;;;5127915;28;20080;-63
2021/12/14 08:53:12;;;;;;;70.18;36.63;;;8.90;99.90;;;;;;5105395;28;20047;-63
2021/12/14 08:55:43;;;;;;;79.00;39.83;;;8.90;99.90;;;;;;5128500;27;20039;-63
2021/12/14 08:58:09;;;;;;;82.60;41.08;;;8.90;99.90;;;;;;5127847;28;20077;-63
2021/12/14 09:00:40;;;;;;;67.43;38.15;;;8.90;99.90;;;;;;5137244;27;20061;-63
2021/12/14 09:03:09;;;;;;;75.93;37.08;;;8.90;99.90;;;;;;5126037;28;20483;-63
2021/12/14 09:05:44;;;;;;;66.70;36.20;;;8.90;99.90;;;;;;5129180;27;20498;-64
2021/12/14 09:08:09;;;;;;;82.00;41.30;;;8.90;99.90;;;;;;5125737;27;20078;-63
2021/12/14 09:10:43;;;;;;;71.07;37.38;;;8.90;99.90;;;;;;5150052;27;20098;-63
2021/12/14 09:13:11;;;;;;;65.97;36.83;;;8.90;99.90;;;;;;5112924;27;20070;-63
2021/12/14 09:16:12;;;;;;;72.57;36.95;;;8.90;99.90;;;;;;5113977;27;20133;-63
2021/12/14 09:18:43;;;;;;;73.20;38.53;;;8.90;99.90;;;;;;5108812;27;20047;-63
2021/12/14 09:21:22;;;;;;;71.25;37.70;;;8.90;99.90;;;;;;5132745;27;20043;-63
2021/12/14 09:23:52;;;;;;;74.15;39.17;;;8.90;99.90;;;;;;5132149;27;20045;-63
2021/12/14 09:26:24;;;;;;;69.45;36.70;;;8.90;99.90;;;;;;5142661;27;20508;-63
2021/12/14 09:28:50;;;;;;;69.75;37.78;;;8.80;99.90;;;;;;5130008;27;20077;-63
2021/12/14 09:31:20;;;;;;;68.72;36.05;;;8.80;99.90;;;;;;5138288;27;20130;-63
2021/12/14 09:33:47;;;;;;;69.18;38.08;;;8.90;99.90;;;;;;5138296;27;20047;-64
2021/12/14 09:36:14;;;;;;;70.05;37.15;;;8.90;99.90;;;;;;5145243;27;20043;-64
2021/12/14 09:38:48;;;;;;;72.57;35.55;;;8.90;99.90;;;;;;5132472;27;20066;-63
2021/12/14 09:41:17;;;;;;;70.25;36.20;;;8.90;99.90;;;;;;5128173;27;20047;-63
2021/12/14 09:43:44;;;;;;;73.18;36.30;;;8.90;99.90;;;;;;5131166;27;20123;-63
2021/12/14 09:46:10;;;;;;;67.15;34.58;;;8.80;99.90;;;;;;5132572;27;20082;-63
2021/12/14 09:48:46;;;;;;;71.03;36.58;;;8.90;99.90;;;;;;5125439;27;20069;-63
2021/12/14 09:51:16;;;;;;;72.13;36.67;;;8.90;99.90;;;;;;5113050;27;20099;-63
2021/12/14 09:53:45;;;;;;;67.75;35.22;;;8.90;99.90;;;;;;5109805;27;20040;-63
2021/12/14 09:56:14;;;;;;;70.30;34.88;;;8.90;99.90;;;;;;5125902;27;20077;-64
2021/12/14 09:58:44;;;;;;;70.40;37.08;;;8.90;99.90;;;;;;5130563;27;20091;-64
2021/12/14 10:01:19;;;;;;;66.03;35.72;;;8.90;99.90;;;;;;5129515;27;20070;-62
2021/12/14 10:03:48;;;;;;;71.00;36.42;;;8.90;99.90;;;;;;5133565;27;20095;-62
2021/12/14 10:06:19;;;;;;;68.13;35.03;;;8.90;99.90;;;;;;5135783;27;20042;-63
2021/12/14 10:08:51;;;;;;;64.43;32.90;;;8.90;99.90;;;;;;5152718;27;20042;-63
2021/12/14 10:11:27;;;;;;;65.05;34.60;;;8.90;99.90;;;;;;5150914;27;20046;-63
2021/12/14 10:13:56;;;;;;;66.22;34.35;;;8.90;99.90;;;;;;5151706;27;20081;-63
2021/12/14 10:16:22;;;;;;;71.07;35.55;;;8.90;99.90;;;;;;5121599;27;20676;-63
2021/12/14 10:18:53;;;;;;;59.63;32.40;;;8.90;99.90;;;;;;5131725;27;20051;-63
2021/12/14 10:21:28;;;;;;;58.47;33.00;;;8.90;99.90;;;;;;5151312;27;20496;-63
2021/12/14 10:23:55;;;;;;;56.40;31.80;;;8.90;99.90;;;;;;5150018;27;20118;-64
2021/12/14 10:26:23;;;;;;;63.67;32.40;;;8.90;99.90;;;;;;5131017;27;20051;-63
2021/12/14 10:28:53;;;;;;;64.13;32.33;;;8.90;99.90;;;;;;5130467;27;20425;-63
2021/12/14 10:31:27;;;;;;;67.43;31.85;;;8.90;99.90;;;;;;5131242;27;20047;-63
2021/12/14 10:33:53;;;;;;;51.47;30.63;;;8.90;99.90;;;;;;5142884;27;20528;-63
2021/12/14 10:36:34;;;;;;;63.05;31.00;;;8.90;99.90;;;;;;5140086;27;20119;-63
2021/12/14 10:44:22;;;;;;;46.67;26.35;;;8.90;99.90;;;;;;5130987;27;20058;-63
2021/12/14 10:46:51;;;;;;;51.85;27.02;;;9.00;99.90;;;;;;5130889;27;20047;-63
2021/12/14 10:49:22;;;;;;;52.25;25.73;;;9.00;99.90;;;;;;5131294;27;20096;-63
2021/12/14 10:51:52;;;;;;;52.88;26.80;;;9.00;99.90;;;;;;5129444;27;20043;-65
2021/12/14 10:54:19;;;;;;;46.90;24.55;;;9.10;99.90;;;;;;5113090;27;20330;-64
2021/12/14 10:56:56;;;;;;;44.05;23.77;;;9.10;99.90;;;;;;5111208;27;20475;-63
2021/12/14 10:59:26;;;;;;;41.00;24.33;;;9.10;99.90;;;;;;5129067;27;20047;-63
2021/12/14 11:01:52;;;;;;;46.17;24.02;;;9.10;99.90;;;;;;5123007;27;20035;-63
2021/12/14 11:04:36;;;;;;;52.78;26.95;;;9.20;99.90;;;;;;5112097;27;20122;-63
2021/12/14 11:07:07;;;;;;;48.90;24.10;;;9.10;99.90;;;;;;5110988;27;20575;-63
2021/12/14 11:09:42;;;;;;;48.05;23.85;;;9.20;99.90;;;;;;5129558;27;20168;-63
2021/12/14 11:12:35;;;;;;;44.15;23.15;;;9.20;99.90;;;;;;5118008;27;20091;-63
2021/12/14 11:15:08;;;;;;;64.38;27.23;;;9.20;99.90;;;;;;5105938;27;20054;-63
2021/12/14 11:20:27;;;;;;;39.95;23.42;;;9.20;99.90;;;;;;5128899;27;20106;-63
2021/12/14 11:23:02;;;;;;;37.63;20.08;;;9.30;99.90;;;;;;5135672;27;20043;-64
2021/12/14 11:25:30;;;;;;;36.95;19.98;;;9.30;99.90;;;;;;5129876;27;20051;-64
2021/12/14 11:28:03;;;;;;;44.67;19.33;;;9.30;99.90;;;;;;5136722;27;20439;-63
2021/12/14 11:30:49;;;;;;;34.45;17.80;;;9.30;99.90;;;;;;5123208;27;20051;-63
2021/12/14 11:33:25;;;;;;;23.90;14.57;;;9.30;99.90;;;;;;5135110;27;20461;-63
2021/12/14 11:36:30;;;;;;;24.60;13.98;;;9.40;99.90;;;;;;5120591;27;20434;-64
2021/12/14 11:39:02;;;;;;;23.45;13.25;;;9.40;99.90;;;;;;5047070;28;20045;-63
2021/12/14 11:41:33;;;;;;;23.92;13.25;;;9.40;99.90;;;;;;5088224;27;20052;-63
2021/12/14 11:44:01;;;;;;;28.20;14.68;;;9.40;99.90;;;;;;5118503;27;20050;-63
2021/12/14 11:46:29;;;;;;;33.83;14.88;;;9.50;99.90;;;;;;5128679;27;20071;-64
2021/12/14 11:48:59;;;;;;;25.40;15.00;;;9.50;99.90;;;;;;5123266;27;20036;-64
2021/12/14 11:51:27;;;;;;;28.48;15.68;;;9.40;99.90;;;;;;5128455;27;20375;-63
2021/12/14 11:53:55;;;;;;;26.92;15.30;;;9.50;99.90;;;;;;5134571;27;20043;-64
2021/12/14 11:56:24;;;;;;;21.48;12.98;;;9.50;99.90;;;;;;5132083;27;20679;-63
2021/12/14 11:58:56;;;;;;;21.15;12.65;;;9.50;99.90;;;;;;5138466;27;20039;-64
2021/12/14 12:01:47;;;;;;;19.45;11.70;;;9.50;99.90;;;;;;5129367;28;20425;-63
2021/12/14 12:04:36;;;;;;;21.35;11.77;;;9.50;99.90;;;;;;5114637;28;20176;-63
2021/12/14 12:10:10;;;;;;;15.43;9.65;;;9.60;99.90;;;;;;5094989;28;20106;-63
2021/12/14 12:12:39;;;;;;;19.58;10.63;;;9.60;99.90;;;;;;5124236;27;20039;-63
2021/12/14 12:15:19;;;;;;;17.40;9.68;;;9.60;99.90;;;;;;5113715;27;20498;-63
2021/12/14 12:18:00;;;;;;;19.45;10.98;;;9.60;99.90;;;;;;5124610;27;20047;-63
2021/12/14 12:20:32;;;;;;;20.10;10.40;;;9.60;99.90;;;;;;5120998;28;20134;-63
2021/12/14 12:23:04;;;;;;;18.33;11.52;;;9.70;99.90;;;;;;5132015;27;20043;-63
2021/12/14 12:25:40;;;;;;;21.83;11.55;;;9.70;99.90;;;;;;5116141;27;20059;-63
2021/12/14 12:28:13;;;;;;;25.30;12.23;;;9.70;99.90;;;;;;5125954;28;20039;-63
2021/12/14 12:30:53;;;;;;;29.97;12.63;;;9.70;99.90;;;;;;5109059;28;20067;-63
2021/12/14 12:33:23;;;;;;;24.90;12.10;;;9.70;99.90;;;;;;5122170;27;20039;-64
2021/12/14 12:35:55;;;;;;;27.67;13.70;;;9.80;99.90;;;;;;5115392;27;20052;-64
2021/12/14 12:38:31;;;;;;;32.92;12.90;;;9.80;99.90;;;;;;5115194;28;20051;-64
2021/12/14 12:41:11;;;;;;;29.50;12.52;;;9.70;99.90;;;;;;5131064;27;20046;-64
2021/12/14 12:43:48;;;;;;;32.13;13.13;;;9.80;99.90;;;;;;5130156;27;20035;-64
2021/12/14 12:46:18;;;;;;;37.13;14.10;;;9.80;99.90;;;;;;5121610;27;20051;-64
2021/12/14 12:48:47;;;;;;;28.08;11.70;;;9.80;99.90;;;;;;5104166;27;20059;-64
2021/12/14 12:51:33;;;;;;;29.45;12.07;;;9.80;99.90;;;;;;5134169;27;20099;-64
2021/12/14 12:54:31;;;;;;;27.80;12.73;;;9.80;99.90;;;;;;5123700;27;20054;-64
2021/12/14 12:57:12;;;;;;;35.08;13.00;;;9.90;99.90;;;;;;5110496;27;20064;-64
2021/12/14 12:59:56;;;;;;;35.70;12.85;;;9.90;99.90;;;;;;5121489;27;20391;-64
2021/12/14 13:02:32;;;;;;;29.02;12.45;;;10.00;99.90;;;;;;5128516;27;20038;-64
2021/12/14 13:05:05;;;;;;;35.53;12.85;;;10.00;99.90;;;;;;5132680;27;20565;-64
2021/12/14 13:07:45;;;;;;;40.55;13.60;;;10.00;99.90;;;;;;5130467;27;20095;-64
2021/12/14 13:10:36;;;;;;;34.40;11.88;;;10.00;99.90;;;;;;5139933;27;20096;-64
2021/12/14 13:13:28;;;;;;;29.17;11.98;;;10.00;99.90;;;;;;5136817;27;20043;-64
2021/12/14 13:15:57;;;;;;;25.85;11.52;;;10.10;99.90;;;;;;5133965;27;20123;-64
2021/12/14 13:19:10;;;;;;;28.10;12.48;;;10.10;99.90;;;;;;5109691;27;20073;-63
2021/12/14 13:21:38;;;;;;;40.00;23.77;;;10.10;99.90;;;;;;5130372;27;20043;-64
2021/12/14 13:24:22;;;;;;;104.32;61.25;;;10.10;99.90;;;;;;5127161;27;20092;-63
2021/12/14 13:26:56;;;;;;;32.13;14.52;;;10.10;99.90;;;;;;5128701;27;20570;-63
2021/12/14 13:29:33;;;;;;;23.27;9.63;;;10.10;99.90;;;;;;5122616;27;20537;-63
2021/12/14 13:32:03;;;;;;;25.23;9.90;;;10.10;99.90;;;;;;5117174;27;20142;-64
2021/12/14 13:34:53;;;;;;;20.48;10.05;;;10.10;99.90;;;;;;5138846;27;20106;-64
2021/12/14 13:37:25;;;;;;;19.90;10.45;;;10.10;99.90;;;;;;5129013;27;20046;-64
2021/12/14 13:39:52;;;;;;;20.73;10.00;;;10.10;99.90;;;;;;5133654;27;20035;-64